createdAt,value
2023-04-18T00:00:10.051Z,81.05
2023-04-18T00:02:38.483Z,80.58
2023-04-18T00:05:07.478Z,80.03
2023-04-18T00:07:35.318Z,79.43
2023-04-18T00:10:03.456Z,78.68
2023-04-18T00:12:29.917Z,78.04
2023-04-18T00:14:58.577Z,77.32
2023-04-18T00:17:27.628Z,76.69
2023-04-18T00:19:56.291Z,76.03
2023-04-18T00:22:22.799Z,75.70
2023-04-18T00:24:50.632Z,75.14
2023-04-18T00:27:20.473Z,75.05
2023-04-18T00:29:47.487Z,74.21
2023-04-18T00:32:14.646Z,73.28
2023-04-18T00:34:41.224Z,73.16
2023-04-18T00:37:08.200Z,72.94
2023-04-18T00:39:37.853Z,72.46
2023-04-18T00:42:04.290Z,71.95
2023-04-18T00:44:31.498Z,71.79
2023-04-18T00:46:58.240Z,70.88
2023-04-18T00:49:25.633Z,70.12
2023-04-18T00:51:52.499Z,69.99
2023-04-18T00:54:19.146Z,69.56
2023-04-18T00:56:46.792Z,69.39
2023-04-18T00:59:13.896Z,69.41
2023-04-18T01:01:40.471Z,69.55
2023-04-18T01:04:08.203Z,69.55
2023-04-18T01:06:35.378Z,69.40
2023-04-18T01:09:02.205Z,69.38
2023-04-18T01:11:28.597Z,69.14
2023-04-18T01:14:13.391Z,69.29
2023-04-18T01:16:39.955Z,69.54
2023-04-18T01:19:06.694Z,69.42
2023-04-18T01:21:36.124Z,69.66
2023-04-18T01:24:16.562Z,69.49
2023-04-18T01:26:49.221Z,69.42
2023-04-18T01:29:15.812Z,69.39
2023-04-18T01:31:42.315Z,69.00
2023-04-18T01:34:08.999Z,69.04
2023-04-18T01:36:36.616Z,68.84
2023-04-18T01:39:03.489Z,69.02
2023-04-18T01:41:32.480Z,68.88
2023-04-18T01:43:59.752Z,69.10
2023-04-18T01:46:26.421Z,68.96
2023-04-18T01:48:53.144Z,69.22
2023-04-18T01:51:19.663Z,69.21
2023-04-18T01:53:46.046Z,69.43
2023-04-18T01:56:12.865Z,69.22
2023-04-18T01:58:39.485Z,69.24
2023-04-18T02:01:05.869Z,69.54
2023-04-18T02:03:32.407Z,69.25
2023-04-18T02:06:01.043Z,69.10
2023-04-18T02:08:27.485Z,69.00
2023-04-18T02:10:53.848Z,69.33
2023-04-18T02:13:20.282Z,69.33
2023-04-18T02:15:46.649Z,69.48
2023-04-18T02:18:13.252Z,69.58
2023-04-18T02:20:39.972Z,69.97
2023-04-18T02:23:07.011Z,69.86
2023-04-18T02:25:33.444Z,69.79
2023-04-18T02:28:00.073Z,69.98
2023-04-18T02:30:27.066Z,69.64
2023-04-18T02:32:54.518Z,69.51
2023-04-18T02:35:21.332Z,69.83
2023-04-18T02:37:47.692Z,69.75
2023-04-18T02:40:14.336Z,69.89
2023-04-18T02:42:40.924Z,69.92
2023-04-18T02:45:08.219Z,70.03
2023-04-18T02:47:46.964Z,70.16
2023-04-18T02:50:18.072Z,69.89
2023-04-18T02:52:44.447Z,69.95
2023-04-18T02:55:10.925Z,69.89
2023-04-18T02:57:37.352Z,69.90
2023-04-18T03:00:05.174Z,70.00
2023-04-18T03:02:31.618Z,69.86
2023-04-18T03:04:58.137Z,69.75
2023-04-18T03:07:24.507Z,69.57
2023-04-18T03:09:50.884Z,69.76
2023-04-18T03:12:17.400Z,69.75
2023-04-18T03:14:44.515Z,69.86
2023-04-18T03:17:11.411Z,69.74
2023-04-18T03:19:37.858Z,69.94
2023-04-18T03:22:04.191Z,69.74
2023-04-18T03:24:30.794Z,70.14
2023-04-18T03:26:57.853Z,70.13
2023-04-18T03:29:24.318Z,70.18
2023-04-18T03:31:50.753Z,70.35
2023-04-18T03:34:17.141Z,70.28
2023-04-18T03:36:44.068Z,70.35
2023-04-18T03:39:12.917Z,70.44
2023-04-18T03:41:39.325Z,70.42
2023-04-18T03:44:05.702Z,70.46
2023-04-18T03:46:32.239Z,70.62
2023-04-18T03:48:58.680Z,70.85
2023-04-18T03:51:25.170Z,70.71
2023-04-18T03:53:51.528Z,70.81
2023-04-18T03:56:18.089Z,70.67
2023-04-18T03:58:44.449Z,70.58
2023-04-18T04:01:10.816Z,70.80
2023-04-18T04:03:37.389Z,70.75
2023-04-18T04:06:04.294Z,70.66
2023-04-18T04:08:30.791Z,71.07
2023-04-18T04:10:57.214Z,70.92
2023-04-18T04:13:23.754Z,71.06
2023-04-18T04:15:50.540Z,70.94
2023-04-18T04:18:16.946Z,71.29
2023-04-18T04:20:45.646Z,70.96
2023-04-18T04:23:12.026Z,71.06
2023-04-18T04:25:39.185Z,71.05
2023-04-18T04:28:06.751Z,71.16
2023-04-18T04:30:33.675Z,71.17
2023-04-18T04:33:01.606Z,70.95
2023-04-18T04:35:28.328Z,71.25
2023-04-18T04:37:54.806Z,71.48
2023-04-18T04:40:22.820Z,71.74
2023-04-18T04:42:49.358Z,71.53
2023-04-18T04:45:15.787Z,71.51
2023-04-18T04:47:42.200Z,71.77
2023-04-18T04:50:14.593Z,71.83
2023-04-18T04:52:42.297Z,71.94
2023-04-18T04:55:08.931Z,71.87
2023-04-18T04:57:35.805Z,72.18
2023-04-18T05:00:02.205Z,72.10
2023-04-18T05:02:28.762Z,72.42
2023-04-18T05:04:55.362Z,72.38
2023-04-18T05:07:21.852Z,72.28
2023-04-18T05:09:48.269Z,72.47
2023-04-18T05:12:14.627Z,72.68
2023-04-18T05:14:41.019Z,72.71
2023-04-18T05:17:07.751Z,72.70
2023-04-18T05:19:34.307Z,72.68
2023-04-18T05:22:00.785Z,72.86
2023-04-18T05:24:27.257Z,72.85
2023-04-18T05:26:53.778Z,73.00
2023-04-18T05:29:20.339Z,73.28
2023-04-18T05:31:46.838Z,73.28
2023-04-18T05:34:13.640Z,73.39
2023-04-18T05:36:40.462Z,73.55
2023-04-18T05:39:07.084Z,73.74
2023-04-18T05:41:33.513Z,73.82
2023-04-18T05:44:05.257Z,73.75
2023-04-18T05:46:43.445Z,73.89
2023-04-18T05:49:09.888Z,74.01
2023-04-18T05:51:36.296Z,74.05
2023-04-18T05:54:02.877Z,74.06
2023-04-18T05:56:29.427Z,74.07
2023-04-18T05:58:55.912Z,74.07
2023-04-18T06:01:22.931Z,74.35
2023-04-18T06:03:49.541Z,74.39
2023-04-18T06:06:16.258Z,74.48
2023-04-18T06:08:42.781Z,74.25
2023-04-18T06:11:09.219Z,74.38
2023-04-18T06:13:36.735Z,74.73
2023-04-18T06:16:03.643Z,74.74
2023-04-18T06:18:30.045Z,74.65
2023-04-18T06:20:56.443Z,74.58
2023-04-18T06:23:22.841Z,74.59
2023-04-18T06:25:49.352Z,74.40
2023-04-18T06:28:16.131Z,74.38
2023-04-18T06:30:42.533Z,74.12
2023-04-18T06:33:12.089Z,74.03
2023-04-18T06:35:38.624Z,73.89
2023-04-18T06:38:05.026Z,73.87
2023-04-18T06:40:31.530Z,73.48
2023-04-18T06:42:58.060Z,73.54
2023-04-18T06:45:24.612Z,73.30
2023-04-18T06:47:52.319Z,72.70
2023-04-18T06:50:18.847Z,72.68
2023-04-18T06:52:45.645Z,72.48
2023-04-18T06:55:13.958Z,72.89
2023-04-18T06:57:41.719Z,73.02
2023-04-18T07:00:10.012Z,73.09
2023-04-18T07:02:38.490Z,73.15
2023-04-18T07:05:06.000Z,72.73
2023-04-18T07:07:33.462Z,72.77
2023-04-18T07:09:59.904Z,72.45
2023-04-18T07:12:27.210Z,72.56
2023-04-18T07:14:54.326Z,72.44
2023-04-18T07:17:20.825Z,72.68
2023-04-18T07:19:47.621Z,72.40
2023-04-18T07:22:14.080Z,72.03
2023-04-18T07:24:40.599Z,72.42
2023-04-18T07:27:07.521Z,72.34
2023-04-18T07:29:33.889Z,72.37
2023-04-18T07:32:00.459Z,72.62
2023-04-18T07:34:29.585Z,72.51
2023-04-18T07:36:57.597Z,72.26
2023-04-18T07:39:23.985Z,72.21
2023-04-18T07:41:50.524Z,71.84
2023-04-18T07:44:16.990Z,71.67
2023-04-18T07:46:43.648Z,71.10
2023-04-18T07:49:10.099Z,71.10
2023-04-18T07:51:36.448Z,71.19
2023-04-18T07:54:02.978Z,70.55
2023-04-18T07:56:29.724Z,70.13
2023-04-18T07:58:56.265Z,69.39
2023-04-18T08:01:24.613Z,69.49
2023-04-18T08:03:51.875Z,69.33
2023-04-18T08:06:18.411Z,68.83
2023-04-18T08:08:44.905Z,68.15
2023-04-18T08:11:11.410Z,67.79
2023-04-18T08:13:37.941Z,66.92
2023-04-18T08:16:04.621Z,66.61
2023-04-18T08:18:31.160Z,66.33
2023-04-18T08:20:57.613Z,66.65
2023-04-18T08:23:24.005Z,66.95
2023-04-18T08:25:50.946Z,66.21
2023-04-18T08:28:17.635Z,66.24
2023-04-18T08:30:48.606Z,66.10
2023-04-18T08:33:16.155Z,64.69
2023-04-18T08:35:43.094Z,64.69
2023-04-18T08:38:09.662Z,65.48
2023-04-18T08:40:37.500Z,64.97
2023-04-18T08:43:09.315Z,65.45
2023-04-18T08:45:36.806Z,65.42
2023-04-18T08:48:03.905Z,64.99
2023-04-18T08:50:31.881Z,65.55
2023-04-18T08:53:00.944Z,64.92
2023-04-18T08:55:27.436Z,65.25
2023-04-18T08:57:55.307Z,63.06
2023-04-18T09:00:22.702Z,63.37
2023-04-18T09:02:49.467Z,63.14
2023-04-18T09:05:19.968Z,63.41
2023-04-18T09:07:51.414Z,63.83
2023-04-18T09:10:33.278Z,63.73
2023-04-18T09:13:02.933Z,63.23
2023-04-18T09:15:29.836Z,63.34
2023-04-18T09:18:02.618Z,62.45
2023-04-18T09:20:38.056Z,61.81
2023-04-18T09:23:10.802Z,58.52
2023-04-18T09:25:44.491Z,59.15
2023-04-18T09:28:29.113Z,58.31
2023-04-18T09:31:10.125Z,59.00
2023-04-18T09:33:37.052Z,57.70
2023-04-18T09:36:23.587Z,59.40
2023-04-18T09:38:54.509Z,59.98
2023-04-18T09:41:23.671Z,60.12
2023-04-18T09:43:50.346Z,60.93
2023-04-18T09:46:17.962Z,60.03
2023-04-18T09:48:44.578Z,60.10
2023-04-18T09:51:14.726Z,59.07
2023-04-18T09:53:44.586Z,59.21
2023-04-18T09:56:27.671Z,59.28
2023-04-18T09:59:06.160Z,60.93
2023-04-18T10:01:33.927Z,59.71
2023-04-18T10:04:03.347Z,60.12
2023-04-18T10:06:33.453Z,60.35
2023-04-18T10:09:02.868Z,60.50
2023-04-18T10:11:31.659Z,60.29
2023-04-18T10:14:02.485Z,60.51
2023-04-18T10:16:29.428Z,60.71
2023-04-18T10:18:56.463Z,60.03
2023-04-18T10:21:22.854Z,60.22
2023-04-18T10:23:50.274Z,60.70
2023-04-18T10:26:16.843Z,60.99
2023-04-18T10:28:57.730Z,60.19
2023-04-18T10:31:29.047Z,59.74
2023-04-18T10:36:28.061Z,59.69
2023-04-18T10:39:19.222Z,60.08
2023-04-18T10:41:50.988Z,59.74
2023-04-18T10:44:23.050Z,58.36
2023-04-18T10:46:53.097Z,58.28
2023-04-18T10:49:30.293Z,57.72
2023-04-18T10:52:00.698Z,56.84
2023-04-18T10:54:47.604Z,57.60
2023-04-18T10:57:15.201Z,56.66
2023-04-18T10:59:44.009Z,57.06
2023-04-18T11:02:30.018Z,57.48
2023-04-18T11:05:01.540Z,56.46
2023-04-18T11:07:39.658Z,56.28
2023-04-18T11:10:07.800Z,57.66
2023-04-18T11:12:37.507Z,58.04
2023-04-18T11:15:13.021Z,57.53
2023-04-18T11:17:40.304Z,58.03
2023-04-18T11:20:09.235Z,58.13
2023-04-18T11:22:51.972Z,58.38
2023-04-18T11:25:19.826Z,59.03
2023-04-18T11:27:48.942Z,59.06
2023-04-18T11:30:15.642Z,58.26
2023-04-18T11:32:42.131Z,58.67
2023-04-18T11:35:11.201Z,58.81
2023-04-18T11:37:39.151Z,59.53
2023-04-18T11:40:08.393Z,59.25
2023-04-18T11:42:37.315Z,59.44
2023-04-18T11:45:04.165Z,59.27
2023-04-18T11:47:33.909Z,59.13
2023-04-18T11:50:07.992Z,58.33
2023-04-18T11:52:36.034Z,58.55
2023-04-18T11:55:19.515Z,58.13
2023-04-18T11:57:56.200Z,57.96
2023-04-18T12:00:41.584Z,58.31
2023-04-18T12:03:16.536Z,58.58
2023-04-18T12:05:43.229Z,58.13
2023-04-18T12:08:11.977Z,58.14
2023-04-18T12:10:46.331Z,57.84
2023-04-18T12:13:13.016Z,57.93
2023-04-18T12:15:42.218Z,58.14
2023-04-18T12:18:09.067Z,58.76
2023-04-18T12:20:45.826Z,58.67
2023-04-18T12:23:48.081Z,58.48
2023-04-18T12:26:18.205Z,58.65
2023-04-18T12:28:45.830Z,58.14
2023-04-18T12:31:12.842Z,57.70
2023-04-18T12:33:39.346Z,57.82
2023-04-18T12:36:08.166Z,58.39
2023-04-18T12:38:35.608Z,57.87
2023-04-18T12:41:02.689Z,58.31
2023-04-18T12:43:29.267Z,58.01
2023-04-18T12:45:55.903Z,58.53
2023-04-18T12:48:22.580Z,58.06
2023-04-18T12:50:49.010Z,58.06
2023-04-18T12:53:15.437Z,58.45
2023-04-18T12:55:41.832Z,58.54
2023-04-18T12:58:08.224Z,58.93
2023-04-18T13:00:34.870Z,59.86
2023-04-18T13:03:01.619Z,59.95
2023-04-18T13:05:31.666Z,60.49
2023-04-18T13:08:15.248Z,60.10
2023-04-18T13:10:43.280Z,60.41
2023-04-18T13:13:09.718Z,60.38
2023-04-18T13:15:36.156Z,60.13
2023-04-18T13:18:05.163Z,60.38
2023-04-18T13:20:32.605Z,60.83
2023-04-18T13:22:59.187Z,60.77
2023-04-18T13:25:26.576Z,60.36
2023-04-18T13:27:53.328Z,60.95
2023-04-18T13:30:19.943Z,60.86
2023-04-18T13:32:47.218Z,60.32
2023-04-18T13:35:16.462Z,60.16
2023-04-18T13:37:43.047Z,59.77
2023-04-18T13:40:09.974Z,60.17
2023-04-18T13:42:38.664Z,59.12
2023-04-18T13:45:05.722Z,59.08
2023-04-18T13:47:32.097Z,59.02
2023-04-18T13:49:58.671Z,59.15
2023-04-18T13:52:25.634Z,59.26
2023-04-18T13:54:52.068Z,58.67
2023-04-18T13:57:18.559Z,58.77
2023-04-18T13:59:44.966Z,57.45
2023-04-18T14:02:11.579Z,57.43
2023-04-18T14:04:38.321Z,56.43
2023-04-18T14:07:06.430Z,56.00
2023-04-18T14:09:33.267Z,55.90
2023-04-18T14:11:59.814Z,55.52
2023-04-18T14:14:26.364Z,55.70
2023-04-18T14:16:53.646Z,56.13
2023-04-18T14:19:20.238Z,56.06
2023-04-18T14:21:47.554Z,55.86
2023-04-18T14:24:14.257Z,56.10
2023-04-18T14:26:40.865Z,55.12
2023-04-18T14:29:07.279Z,55.58
2023-04-18T14:31:33.633Z,55.29
2023-04-18T14:34:00.138Z,56.43
2023-04-18T14:36:27.130Z,56.30
2023-04-18T14:38:54.581Z,56.39
2023-04-18T14:41:21.091Z,55.92
2023-04-18T14:43:47.788Z,55.86
2023-04-18T14:46:16.515Z,55.71
2023-04-18T14:48:49.796Z,55.89
2023-04-18T14:51:16.949Z,54.93
2023-04-18T14:53:44.761Z,55.07
2023-04-18T14:56:11.225Z,55.17
2023-04-18T14:58:37.757Z,55.66
2023-04-18T15:01:04.559Z,54.81
2023-04-18T15:03:31.226Z,55.58
2023-04-18T15:05:57.971Z,54.84
2023-04-18T15:08:24.546Z,54.42
2023-04-18T15:10:50.997Z,54.29
2023-04-18T15:13:17.581Z,53.22
2023-04-18T15:15:51.602Z,53.66
2023-04-18T15:18:18.038Z,52.74
2023-04-18T15:20:44.499Z,53.30
2023-04-18T15:23:13.710Z,53.34
2023-04-18T15:25:41.583Z,52.87
2023-04-18T15:28:08.028Z,53.42
2023-04-18T15:30:34.524Z,52.75
2023-04-18T15:33:02.242Z,52.88
2023-04-18T15:35:28.724Z,52.91
2023-04-18T15:37:55.538Z,53.16
2023-04-18T15:40:22.096Z,52.30
2023-04-18T15:42:49.699Z,52.82
2023-04-18T15:45:16.186Z,52.05
2023-04-18T15:47:42.626Z,51.89
2023-04-18T15:50:09.589Z,52.16
2023-04-18T15:52:36.681Z,51.80
2023-04-18T15:55:04.930Z,51.84
2023-04-18T15:57:31.945Z,51.82
2023-04-18T15:59:59.422Z,52.22
2023-04-18T16:02:26.506Z,52.14
2023-04-18T16:04:53.081Z,51.83
2023-04-18T16:07:19.470Z,51.84
2023-04-18T16:09:45.900Z,51.96
2023-04-18T16:12:12.316Z,51.98
2023-04-18T16:14:38.758Z,52.02
2023-04-18T16:17:05.176Z,51.40
2023-04-18T16:19:33.308Z,52.44
2023-04-18T16:22:00.903Z,52.62
2023-04-18T16:24:27.461Z,53.10
2023-04-18T16:26:55.498Z,53.58
2023-04-18T16:29:24.113Z,53.52
2023-04-18T16:31:51.713Z,53.38
2023-04-18T16:34:18.382Z,53.92
2023-04-18T16:36:44.834Z,53.72
2023-04-18T16:39:11.446Z,54.46
2023-04-18T16:41:37.894Z,54.07
2023-04-18T16:44:04.634Z,53.10
2023-04-18T16:46:32.314Z,53.42
2023-04-18T16:48:59.253Z,53.50
2023-04-18T16:51:26.380Z,53.38
2023-04-18T16:53:52.810Z,54.17
2023-04-18T16:56:19.172Z,53.67
2023-04-18T16:58:45.917Z,54.64
2023-04-18T17:01:12.522Z,54.64
2023-04-18T17:03:39.092Z,55.05
2023-04-18T17:06:05.899Z,55.16
2023-04-18T17:08:33.600Z,55.45
2023-04-18T17:11:01.853Z,54.55
2023-04-18T17:13:31.322Z,54.71
2023-04-18T17:15:58.003Z,54.79
2023-04-18T17:18:24.554Z,55.43
2023-04-18T17:20:50.964Z,55.61
2023-04-18T17:23:17.326Z,55.61
2023-04-18T17:25:43.736Z,55.86
2023-04-18T17:28:10.223Z,55.71
2023-04-18T17:30:41.487Z,56.19
2023-04-18T17:33:09.312Z,55.91
2023-04-18T17:35:36.033Z,55.28
2023-04-18T17:38:02.382Z,54.37
2023-04-18T17:40:28.927Z,54.73
2023-04-18T17:42:55.296Z,55.35
2023-04-18T17:45:21.800Z,55.99
2023-04-18T17:47:49.898Z,56.44
2023-04-18T17:50:16.756Z,56.94
2023-04-18T17:52:43.914Z,57.11
2023-04-18T17:55:10.323Z,57.61
2023-04-18T17:57:37.270Z,56.91
2023-04-18T18:00:09.919Z,57.23
2023-04-18T18:02:36.695Z,57.21
2023-04-18T18:05:03.398Z,57.42
2023-04-18T18:07:31.139Z,57.88
2023-04-18T18:09:58.124Z,58.50
2023-04-18T18:12:24.472Z,58.41
2023-04-18T18:14:50.838Z,59.40
2023-04-18T18:17:17.311Z,59.06
2023-04-18T18:19:43.780Z,59.09
2023-04-18T18:22:10.382Z,59.29
2023-04-18T18:24:36.761Z,59.31
2023-04-18T18:27:03.148Z,60.68
2023-04-18T18:29:29.674Z,60.46
2023-04-18T18:31:56.124Z,60.71
2023-04-18T18:34:22.706Z,60.87
2023-04-18T18:36:49.106Z,60.82
2023-04-18T18:39:16.432Z,61.22
2023-04-18T18:41:43.256Z,61.37
2023-04-18T18:44:09.668Z,61.55
2023-04-18T18:46:36.577Z,61.40
2023-04-18T18:49:03.519Z,61.50
2023-04-18T18:51:29.964Z,61.78
2023-04-18T18:53:57.129Z,61.95
2023-04-18T18:56:23.802Z,62.25
2023-04-18T18:58:50.218Z,62.69
2023-04-18T19:01:16.827Z,62.68
2023-04-18T19:03:43.437Z,62.99
2023-04-18T19:06:10.065Z,63.02
2023-04-18T19:08:36.466Z,63.13
2023-04-18T19:11:02.872Z,62.90
2023-04-18T19:13:29.303Z,63.01
2023-04-18T19:15:55.710Z,63.41
2023-04-18T19:18:22.530Z,63.62
2023-04-18T19:20:51.747Z,63.40
2023-04-18T19:23:19.288Z,63.77
2023-04-18T19:25:46.570Z,63.48
2023-04-18T19:28:14.369Z,63.26
2023-04-18T19:30:42.011Z,63.38
2023-04-18T19:33:08.610Z,63.44
2023-04-18T19:35:37.676Z,63.70
2023-04-18T19:38:04.480Z,63.99
2023-04-18T19:40:31.074Z,63.48
2023-04-18T19:42:57.735Z,63.89
2023-04-18T19:45:24.464Z,63.92
2023-04-18T19:47:51.002Z,63.96
2023-04-18T19:50:17.560Z,63.96
2023-04-18T19:52:44.092Z,64.26
2023-04-18T19:55:10.474Z,64.34
2023-04-18T19:57:41.328Z,64.58
2023-04-18T20:00:10.087Z,64.92
2023-04-18T20:02:36.834Z,65.27
2023-04-18T20:05:04.845Z,65.53
2023-04-18T20:07:31.699Z,65.42
2023-04-18T20:09:58.141Z,65.59
2023-04-18T20:12:24.563Z,65.65
2023-04-18T20:14:51.337Z,65.61
2023-04-18T20:17:17.983Z,65.31
2023-04-18T20:19:47.111Z,65.39
2023-04-18T20:22:14.807Z,65.71
2023-04-18T20:24:41.290Z,65.58
2023-04-18T20:27:07.746Z,65.38
2023-04-18T20:29:34.154Z,65.74
2023-04-18T20:32:00.595Z,65.58
2023-04-18T20:34:26.999Z,65.78
2023-04-18T20:36:53.472Z,65.89
2023-04-18T20:39:20.130Z,65.97
2023-04-18T20:41:50.694Z,66.08
2023-04-18T20:44:19.036Z,66.29
2023-04-18T20:46:45.432Z,66.08
2023-04-18T20:49:11.916Z,66.27
2023-04-18T20:51:38.360Z,66.37
2023-04-18T20:54:05.343Z,66.52
2023-04-18T20:56:32.129Z,66.72
2023-04-18T20:58:58.487Z,66.79
2023-04-18T21:01:24.945Z,66.55
2023-04-18T21:03:51.459Z,66.73
2023-04-18T21:06:19.166Z,66.76
2023-04-18T21:08:45.796Z,66.72
2023-04-18T21:11:12.215Z,66.83
2023-04-18T21:13:38.717Z,66.94
2023-04-18T21:16:07.908Z,67.32
2023-04-18T21:18:34.471Z,67.20
2023-04-18T21:21:00.937Z,67.22
2023-04-18T21:23:27.412Z,67.07
2023-04-18T21:25:53.790Z,66.97
2023-04-18T21:28:20.372Z,67.11
2023-04-18T21:30:46.878Z,67.16
2023-04-18T21:33:13.494Z,67.34
2023-04-18T21:35:39.978Z,67.36
2023-04-18T21:38:06.402Z,67.71
2023-04-18T21:40:33.322Z,67.84
2023-04-18T21:42:59.782Z,67.95
2023-04-18T21:45:26.310Z,67.77
2023-04-18T21:47:52.849Z,68.19
2023-04-18T21:50:19.453Z,68.23
2023-04-18T21:52:45.869Z,68.00
2023-04-18T21:55:12.325Z,68.22
2023-04-18T21:57:38.753Z,68.79
2023-04-18T22:00:08.504Z,68.58
2023-04-18T22:02:36.603Z,68.84
2023-04-18T22:05:03.153Z,68.83
2023-04-18T22:07:29.586Z,68.87
2023-04-18T22:09:58.480Z,68.98
2023-04-18T22:12:26.359Z,68.91
2023-04-18T22:14:52.940Z,69.00
2023-04-18T22:17:20.911Z,69.26
2023-04-18T22:19:49.806Z,69.23
2023-04-18T22:22:16.531Z,69.61
2023-04-18T22:24:43.585Z,70.26
2023-04-18T22:27:11.308Z,70.21
2023-04-18T22:29:37.791Z,69.98
2023-04-18T22:32:04.395Z,70.18
2023-04-18T22:34:30.854Z,70.45
2023-04-18T22:36:57.226Z,70.33
2023-04-18T22:39:24.721Z,70.08
2023-04-18T22:41:51.092Z,70.75
2023-04-18T22:44:17.784Z,70.68
2023-04-18T22:46:44.647Z,70.86
2023-04-18T22:49:11.282Z,70.67
2023-04-18T22:51:38.157Z,71.21
2023-04-18T22:54:05.233Z,71.32
2023-04-18T22:56:31.619Z,71.41
2023-04-18T22:58:57.956Z,71.64
2023-04-18T23:01:24.395Z,71.83
2023-04-18T23:03:51.100Z,71.84
2023-04-18T23:06:17.615Z,71.91
2023-04-18T23:08:44.007Z,71.91
2023-04-18T23:11:11.152Z,72.17
2023-04-18T23:13:37.656Z,72.33
2023-04-18T23:16:04.376Z,72.40
2023-04-18T23:18:30.858Z,72.61
2023-04-18T23:20:57.320Z,72.74
2023-04-18T23:23:23.850Z,72.82
2023-04-18T23:25:50.236Z,72.81
2023-04-18T23:28:17.152Z,72.99
2023-04-18T23:30:43.955Z,73.39
2023-04-18T23:33:10.545Z,73.24
2023-04-18T23:35:37.502Z,73.41
2023-04-18T23:38:03.880Z,73.57
2023-04-18T23:40:30.440Z,73.71
2023-04-18T23:42:57.118Z,73.49
2023-04-18T23:45:24.364Z,73.71
2023-04-18T23:47:51.433Z,73.71
2023-04-18T23:50:17.938Z,73.83
2023-04-18T23:52:44.318Z,74.03
2023-04-18T23:55:10.838Z,74.25
2023-04-18T23:57:37.382Z,74.46
